Flight Track Log - Related Links

Times and Time Zones

All times are in EDT time to prevent confusion due to time zone crossing. See the N678MB flight status page for this flight to view local times or setup timezone preferences in your user account.

Time Position Orientation Groundspeed Altitude Reporting Facility
EDT Latitude Longitude Course Direction KTS MPH feet Rate Location/Type
Tue 06:28:49 PM 39.1500 -77.1333 109° East 157 181 1,800  Level Potomac TRACON
Tue 06:29:49 PM 39.1833 -77.1000 38° Northeast 241 277 3,400 1,700 Climbing Potomac TRACON
Tue 06:30:49 PM 39.2500 -77.1000 360° North 263 303 5,200 1,785 Climbing Potomac TRACON
Tue 06:31:50 PM 39.3000 -77.0167 52° Northeast 262 302 7,000 1,438 Climbing Potomac TRACON
Tue 06:32:50 PM 39.3167 -76.9167 78° East 276 318 8,100 1,000 Climbing Potomac TRACON
Tue 06:33:50 PM 39.3167 -76.8333 90° East 299 344 9,000 474 Climbing Potomac TRACON
Tue 06:34:00 PM 39.0743 -76.8526 109° East  Level FlightAware Approximate
Tue 06:34:44 PM 39.2500 -76.7500 136° Southeast 285 328 9,000  Level Potomac TRACON
Tue 06:35:50 PM 39.2000 -76.6833 134° Southeast 286 329 9,000  Level Potomac TRACON
Tue 06:36:50 PM 39.1333 -76.6000 136° Southeast 280 322 9,000  Level Potomac TRACON
Tue 06:37:51 PM 39.0833 -76.5167 128° Southeast 290 334 9,000 -50 Level Potomac TRACON
Tue 06:38:51 PM 39.0333 -76.4333 128° Southeast 291 335 8,900 -550 Descending Potomac TRACON
Tue 06:39:51 PM 38.9667 -76.3667 142° Southeast 282 325 7,900 -991 Descending Potomac TRACON
Tue 06:40:46 PM 38.9217 -76.3042 133° Southeast 287 330 7,000 -470 Descending Washington Center
Tue 06:41:46 PM 38.8700 -76.2289 131° Southeast 287 330 7,000  Level Washington Center
Tue 06:42:46 PM 38.8244 -76.1567 129° Southeast 293 337 7,000  Level Washington Center
Tue 06:43:46 PM 38.7706 -76.0817 133° Southeast 293 337 7,000 -50 Level Washington Center
Tue 06:44:46 PM 38.7125 -76.0067 135° Southeast 293 337 6,900  Descending Washington Center
Tue 06:45:46 PM 38.6586 -75.9319 133° Southeast 293 337 7,000 50 Climbing Washington Center
Tue 06:46:46 PM 38.6025 -75.8572 134° Southeast 288 331 7,000  Level Washington Center
Tue 06:47:46 PM 38.5461 -75.7800 133° Southeast 288 331 7,000  Level Washington Center
Tue 06:48:46 PM 38.4922 -75.7083 134° Southeast 288 331 7,000 -750 Level Washington Center
Tue 06:49:46 PM 38.4381 -75.6342 133° Southeast 288 331 5,500 -1,350 Descending Washington Center
Tue 06:50:46 PM 38.3753 -75.5572 136° Southeast 288 331 4,300 -139 Descending Washington Center
Tue 06:52:00 PM 38.3333 -75.4717 90° East  Level FlightAware Approximate
Tue 06:53:22 PM 38.2375 -75.3828 90° East 288 331 5,000  Level Washington Center
Tue 06:54:22 PM 38.2375 -75.3828 90° East 288 331 5,000  Level Washington Center

Login

Don't have an account? Register now (free) for customized features, flight alerts, and more!